Aviation Digital Data Service (ADDS)

Output produced by METARs form (0401 UTC 31 October 2014)
found at http://aviationweather.gov/adds/metars/
 
KINT 302323Z 3100/3124 05004KT P6SM SKC 
     FM311200 VRB04KT P6SM BKN045 BKN200